sensor_id;sensor_type;location;lat;lon;timestamp;P1;durP1;ratioP1;P2;durP2;ratioP2
70757;SDS011;59316;52.964;7.102;2023-06-26T00:00:18;13.60;;;11.73;;
70757;SDS011;59316;52.964;7.102;2023-06-26T00:05:39;14.90;;;12.57;;
70757;SDS011;59316;52.964;7.102;2023-06-26T00:11:01;15.02;;;11.38;;
70757;SDS011;59316;52.964;7.102;2023-06-26T00:16:23;14.02;;;12.27;;
70757;SDS011;59316;52.964;7.102;2023-06-26T00:21:44;17.90;;;11.52;;
70757;SDS011;59316;52.964;7.102;2023-06-26T00:27:06;15.48;;;12.10;;
70757;SDS011;59316;52.964;7.102;2023-06-26T00:32:27;12.82;;;11.13;;
70757;SDS011;59316;52.964;7.102;2023-06-26T00:37:49;15.15;;;12.27;;
70757;SDS011;59316;52.964;7.102;2023-06-26T00:43:10;16.65;;;11.40;;
70757;SDS011;59316;52.964;7.102;2023-06-26T00:48:32;15.73;;;11.45;;
70757;SDS011;59316;52.964;7.102;2023-06-26T00:53:54;13.55;;;11.68;;
70757;SDS011;59316;52.964;7.102;2023-06-26T00:59:16;15.68;;;12.90;;
70757;SDS011;59316;52.964;7.102;2023-06-26T01:04:37;16.15;;;12.93;;
70757;SDS011;59316;52.964;7.102;2023-06-26T01:09:59;16.77;;;13.77;;
70757;SDS011;59316;52.964;7.102;2023-06-26T01:15:20;15.02;;;12.82;;
70757;SDS011;59316;52.964;7.102;2023-06-26T01:20:44;17.83;;;12.98;;
70757;SDS011;59316;52.964;7.102;2023-06-26T01:31:55;14.57;;;12.73;;
70757;SDS011;59316;52.964;7.102;2023-06-26T01:37:17;15.10;;;12.43;;
70757;SDS011;59316;52.964;7.102;2023-06-26T01:42:38;15.27;;;13.25;;
70757;SDS011;59316;52.964;7.102;2023-06-26T01:48:00;16.80;;;13.52;;
70757;SDS011;59316;52.964;7.102;2023-06-26T01:53:24;16.17;;;12.73;;
70757;SDS011;59316;52.964;7.102;2023-06-26T01:58:50;14.95;;;12.80;;
70757;SDS011;59316;52.964;7.102;2023-06-26T02:04:14;16.08;;;13.52;;
70757;SDS011;59316;52.964;7.102;2023-06-26T02:09:35;14.68;;;12.98;;
70757;SDS011;59316;52.964;7.102;2023-06-26T02:14:57;20.10;;;13.60;;
70757;SDS011;59316;52.964;7.102;2023-06-26T02:20:18;18.52;;;15.00;;
70757;SDS011;59316;52.964;7.102;2023-06-26T02:25:40;19.00;;;16.80;;
70757;SDS011;59316;52.964;7.102;2023-06-26T02:31:02;18.30;;;16.13;;
70757;SDS011;59316;52.964;7.102;2023-06-26T02:36:26;19.70;;;16.58;;
70757;SDS011;59316;52.964;7.102;2023-06-26T02:41:47;19.33;;;16.52;;
70757;SDS011;59316;52.964;7.102;2023-06-26T02:47:09;17.05;;;15.25;;
70757;SDS011;59316;52.964;7.102;2023-06-26T02:52:34;18.48;;;15.63;;
70757;SDS011;59316;52.964;7.102;2023-06-26T02:57:55;19.20;;;15.45;;
70757;SDS011;59316;52.964;7.102;2023-06-26T03:03:17;19.38;;;16.15;;
70757;SDS011;59316;52.964;7.102;2023-06-26T03:08:39;21.85;;;16.58;;
70757;SDS011;59316;52.964;7.102;2023-06-26T03:14:01;17.13;;;14.85;;
70757;SDS011;59316;52.964;7.102;2023-06-26T03:19:23;18.63;;;15.15;;
70757;SDS011;59316;52.964;7.102;2023-06-26T03:25:17;18.98;;;14.88;;
70757;SDS011;59316;52.964;7.102;2023-06-26T03:30:38;18.92;;;15.90;;
70757;SDS011;59316;52.964;7.102;2023-06-26T03:36:01;21.77;;;16.60;;
70757;SDS011;59316;52.964;7.102;2023-06-26T03:41:23;21.58;;;16.90;;
70757;SDS011;59316;52.964;7.102;2023-06-26T03:46:45;22.90;;;16.88;;
70757;SDS011;59316;52.964;7.102;2023-06-26T03:52:07;22.27;;;17.55;;
70757;SDS011;59316;52.964;7.102;2023-06-26T03:57:29;19.95;;;16.40;;
70757;SDS011;59316;52.964;7.102;2023-06-26T04:02:50;18.13;;;14.40;;
70757;SDS011;59316;52.964;7.102;2023-06-26T04:08:11;20.13;;;14.38;;
70757;SDS011;59316;52.964;7.102;2023-06-26T04:13:34;19.77;;;14.80;;
70757;SDS011;59316;52.964;7.102;2023-06-26T04:18:55;18.42;;;14.45;;
70757;SDS011;59316;52.964;7.102;2023-06-26T04:24:16;20.00;;;14.85;;
70757;SDS011;59316;52.964;7.102;2023-06-26T04:29:38;18.05;;;14.43;;
70757;SDS011;59316;52.964;7.102;2023-06-26T04:34:59;17.73;;;13.88;;
70757;SDS011;59316;52.964;7.102;2023-06-26T04:40:21;15.57;;;13.10;;
70757;SDS011;59316;52.964;7.102;2023-06-26T04:45:42;16.50;;;12.90;;
70757;SDS011;59316;52.964;7.102;2023-06-26T04:51:04;16.27;;;12.65;;
70757;SDS011;59316;52.964;7.102;2023-06-26T04:56:26;14.95;;;11.50;;
70757;SDS011;59316;52.964;7.102;2023-06-26T05:01:47;15.05;;;11.90;;
70757;SDS011;59316;52.964;7.102;2023-06-26T05:07:09;13.77;;;10.60;;
70757;SDS011;59316;52.964;7.102;2023-06-26T05:12:30;14.75;;;10.82;;
70757;SDS011;59316;52.964;7.102;2023-06-26T05:17:52;13.88;;;9.70;;
70757;SDS011;59316;52.964;7.102;2023-06-26T05:23:14;11.85;;;8.48;;
70757;SDS011;59316;52.964;7.102;2023-06-26T05:33:58;9.45;;;7.25;;
70757;SDS011;59316;52.964;7.102;2023-06-26T05:39:22;9.48;;;7.35;;
70757;SDS011;59316;52.964;7.102;2023-06-26T05:44:43;9.65;;;6.90;;
70757;SDS011;59316;52.964;7.102;2023-06-26T05:50:05;11.25;;;6.78;;
70757;SDS011;59316;52.964;7.102;2023-06-26T05:55:28;10.73;;;7.22;;
70757;SDS011;59316;52.964;7.102;2023-06-26T06:00:50;15.70;;;6.90;;
70757;SDS011;59316;52.964;7.102;2023-06-26T06:06:11;15.20;;;7.35;;
70757;SDS011;59316;52.964;7.102;2023-06-26T06:11:33;12.07;;;7.18;;
70757;SDS011;59316;52.964;7.102;2023-06-26T06:16:55;15.43;;;7.35;;
70757;SDS011;59316;52.964;7.102;2023-06-26T06:22:16;14.68;;;7.63;;
70757;SDS011;59316;52.964;7.102;2023-06-26T06:27:38;14.98;;;7.07;;
70757;SDS011;59316;52.964;7.102;2023-06-26T06:32:59;12.98;;;7.32;;
70757;SDS011;59316;52.964;7.102;2023-06-26T06:38:22;12.52;;;6.53;;
70757;SDS011;59316;52.964;7.102;2023-06-26T06:43:43;13.02;;;6.88;;
70757;SDS011;59316;52.964;7.102;2023-06-26T06:49:05;12.35;;;6.68;;
70757;SDS011;59316;52.964;7.102;2023-06-26T06:54:26;10.38;;;6.07;;
70757;SDS011;59316;52.964;7.102;2023-06-26T06:59:48;12.32;;;6.45;;
70757;SDS011;59316;52.964;7.102;2023-06-26T07:05:10;10.63;;;6.13;;
70757;SDS011;59316;52.964;7.102;2023-06-26T07:10:31;11.90;;;5.60;;
70757;SDS011;59316;52.964;7.102;2023-06-26T07:15:52;9.05;;;4.63;;
70757;SDS011;59316;52.964;7.102;2023-06-26T07:21:14;11.82;;;4.05;;
70757;SDS011;59316;52.964;7.102;2023-06-26T07:26:35;9.82;;;3.47;;
70757;SDS011;59316;52.964;7.102;2023-06-26T07:32:06;5.75;;;2.60;;
70757;SDS011;59316;52.964;7.102;2023-06-26T07:37:27;6.55;;;2.38;;
70757;SDS011;59316;52.964;7.102;2023-06-26T07:42:48;8.90;;;2.95;;
70757;SDS011;59316;52.964;7.102;2023-06-26T07:48:09;7.25;;;2.60;;
70757;SDS011;59316;52.964;7.102;2023-06-26T07:53:30;6.72;;;2.13;;
70757;SDS011;59316;52.964;7.102;2023-06-26T07:58:51;6.40;;;1.85;;
70757;SDS011;59316;52.964;7.102;2023-06-26T08:04:12;3.75;;;1.60;;
70757;SDS011;59316;52.964;7.102;2023-06-26T08:09:33;11.93;;;1.88;;
70757;SDS011;59316;52.964;7.102;2023-06-26T08:14:54;4.32;;;1.65;;
70757;SDS011;59316;52.964;7.102;2023-06-26T08:20:15;9.05;;;2.00;;
70757;SDS011;59316;52.964;7.102;2023-06-26T08:25:36;6.05;;;1.92;;
70757;SDS011;59316;52.964;7.102;2023-06-26T08:30:57;5.35;;;2.28;;
70757;SDS011;59316;52.964;7.102;2023-06-26T08:36:18;5.68;;;1.63;;
70757;SDS011;59316;52.964;7.102;2023-06-26T08:41:39;5.38;;;1.73;;
70757;SDS011;59316;52.964;7.102;2023-06-26T08:47:00;6.15;;;1.90;;
70757;SDS011;59316;52.964;7.102;2023-06-26T08:52:25;5.82;;;1.80;;
70757;SDS011;59316;52.964;7.102;2023-06-26T08:57:51;5.13;;;1.77;;
70757;SDS011;59316;52.964;7.102;2023-06-26T09:03:12;8.05;;;1.90;;
70757;SDS011;59316;52.964;7.102;2023-06-26T09:08:34;3.53;;;1.63;;
70757;SDS011;59316;52.964;7.102;2023-06-26T09:13:55;5.28;;;1.48;;
70757;SDS011;59316;52.964;7.102;2023-06-26T09:19:16;5.65;;;2.00;;
70757;SDS011;59316;52.964;7.102;2023-06-26T09:24:36;9.77;;;1.60;;
70757;SDS011;59316;52.964;7.102;2023-06-26T09:29:58;3.17;;;1.52;;
70757;SDS011;59316;52.964;7.102;2023-06-26T09:35:19;4.03;;;1.70;;
70757;SDS011;59316;52.964;7.102;2023-06-26T09:40:40;1.80;;;1.40;;
70757;SDS011;59316;52.964;7.102;2023-06-26T09:46:02;2.28;;;1.30;;
70757;SDS011;59316;52.964;7.102;2023-06-26T09:51:23;2.60;;;1.50;;
70757;SDS011;59316;52.964;7.102;2023-06-26T09:56:44;2.63;;;1.67;;
70757;SDS011;59316;52.964;7.102;2023-06-26T10:02:05;4.25;;;1.77;;
70757;SDS011;59316;52.964;7.102;2023-06-26T10:07:26;4.18;;;1.90;;
70757;SDS011;59316;52.964;7.102;2023-06-26T10:12:48;3.20;;;2.00;;
70757;SDS011;59316;52.964;7.102;2023-06-26T10:18:09;3.63;;;1.63;;
70757;SDS011;59316;52.964;7.102;2023-06-26T10:23:31;3.55;;;2.15;;
70757;SDS011;59316;52.964;7.102;2023-06-26T10:34:15;3.38;;;1.52;;
70757;SDS011;59316;52.964;7.102;2023-06-26T10:39:46;3.78;;;1.60;;
70757;SDS011;59316;52.964;7.102;2023-06-26T10:45:18;3.60;;;1.58;;
70757;SDS011;59316;52.964;7.102;2023-06-26T10:50:40;2.20;;;1.83;;
70757;SDS011;59316;52.964;7.102;2023-06-26T10:56:03;3.67;;;1.77;;
70757;SDS011;59316;52.964;7.102;2023-06-26T11:01:26;3.03;;;1.48;;
70757;SDS011;59316;52.964;7.102;2023-06-26T11:06:47;4.13;;;1.80;;
70757;SDS011;59316;52.964;7.102;2023-06-26T11:12:09;3.10;;;1.90;;
70757;SDS011;59316;52.964;7.102;2023-06-26T11:17:30;3.55;;;1.70;;
70757;SDS011;59316;52.964;7.102;2023-06-26T11:22:52;4.38;;;1.80;;
70757;SDS011;59316;52.964;7.102;2023-06-26T11:28:13;3.05;;;2.10;;
70757;SDS011;59316;52.964;7.102;2023-06-26T11:33:34;4.10;;;1.73;;
70757;SDS011;59316;52.964;7.102;2023-06-26T11:38:55;4.03;;;1.92;;
70757;SDS011;59316;52.964;7.102;2023-06-26T11:44:16;3.53;;;1.77;;
70757;SDS011;59316;52.964;7.102;2023-06-26T11:49:37;4.55;;;1.85;;
70757;SDS011;59316;52.964;7.102;2023-06-26T11:54:58;2.95;;;1.40;;
70757;SDS011;59316;52.964;7.102;2023-06-26T12:00:19;4.18;;;1.80;;
70757;SDS011;59316;52.964;7.102;2023-06-26T12:05:41;4.65;;;1.70;;
70757;SDS011;59316;52.964;7.102;2023-06-26T12:11:02;1.75;;;1.15;;
70757;SDS011;59316;52.964;7.102;2023-06-26T12:16:23;2.83;;;1.30;;
70757;SDS011;59316;52.964;7.102;2023-06-26T12:21:45;4.63;;;1.70;;
70757;SDS011;59316;52.964;7.102;2023-06-26T12:27:11;3.60;;;1.55;;
70757;SDS011;59316;52.964;7.102;2023-06-26T12:32:34;2.58;;;1.40;;
70757;SDS011;59316;52.964;7.102;2023-06-26T12:37:55;6.32;;;1.20;;
70757;SDS011;59316;52.964;7.102;2023-06-26T12:43:22;3.97;;;1.30;;
70757;SDS011;59316;52.964;7.102;2023-06-26T12:48:44;5.43;;;1.45;;
70757;SDS011;59316;52.964;7.102;2023-06-26T12:54:05;7.20;;;1.80;;
70757;SDS011;59316;52.964;7.102;2023-06-26T12:59:26;3.95;;;1.30;;
70757;SDS011;59316;52.964;7.102;2023-06-26T13:04:48;3.83;;;1.02;;
70757;SDS011;59316;52.964;7.102;2023-06-26T13:10:09;3.67;;;1.23;;
70757;SDS011;59316;52.964;7.102;2023-06-26T13:15:30;4.05;;;1.10;;
70757;SDS011;59316;52.964;7.102;2023-06-26T13:20:51;3.58;;;1.08;;
70757;SDS011;59316;52.964;7.102;2023-06-26T13:26:12;2.38;;;1.10;;
70757;SDS011;59316;52.964;7.102;2023-06-26T13:31:53;4.18;;;0.95;;
70757;SDS011;59316;52.964;7.102;2023-06-26T13:37:14;3.78;;;1.08;;
70757;SDS011;59316;52.964;7.102;2023-06-26T13:42:35;8.15;;;1.10;;
70757;SDS011;59316;52.964;7.102;2023-06-26T13:47:57;6.17;;;1.40;;
70757;SDS011;59316;52.964;7.102;2023-06-26T13:53:19;3.92;;;1.00;;
70757;SDS011;59316;52.964;7.102;2023-06-26T13:58:40;2.80;;;1.05;;
70757;SDS011;59316;52.964;7.102;2023-06-26T14:04:01;1.85;;;0.90;;
70757;SDS011;59316;52.964;7.102;2023-06-26T14:09:22;5.75;;;1.20;;
70757;SDS011;59316;52.964;7.102;2023-06-26T14:14:43;4.45;;;0.98;;
70757;SDS011;59316;52.964;7.102;2023-06-26T14:20:04;5.50;;;1.00;;
70757;SDS011;59316;52.964;7.102;2023-06-26T14:25:31;1.58;;;1.05;;
70757;SDS011;59316;52.964;7.102;2023-06-26T14:30:51;4.93;;;1.10;;
70757;SDS011;59316;52.964;7.102;2023-06-26T14:36:12;3.75;;;1.10;;
70757;SDS011;59316;52.964;7.102;2023-06-26T14:41:33;2.80;;;0.90;;
70757;SDS011;59316;52.964;7.102;2023-06-26T14:46:55;5.88;;;1.10;;
70757;SDS011;59316;52.964;7.102;2023-06-26T14:52:16;1.80;;;1.13;;
70757;SDS011;59316;52.964;7.102;2023-06-26T14:57:37;2.20;;;1.02;;
70757;SDS011;59316;52.964;7.102;2023-06-26T15:02:57;1.60;;;1.13;;
70757;SDS011;59316;52.964;7.102;2023-06-26T15:08:19;5.13;;;1.58;;
70757;SDS011;59316;52.964;7.102;2023-06-26T15:13:40;4.45;;;1.30;;
70757;SDS011;59316;52.964;7.102;2023-06-26T15:19:00;2.45;;;1.00;;
70757;SDS011;59316;52.964;7.102;2023-06-26T15:24:21;3.17;;;1.00;;
70757;SDS011;59316;52.964;7.102;2023-06-26T15:29:43;4.35;;;1.30;;
70757;SDS011;59316;52.964;7.102;2023-06-26T15:35:04;2.78;;;0.90;;
70757;SDS011;59316;52.964;7.102;2023-06-26T15:40:25;3.55;;;1.58;;
70757;SDS011;59316;52.964;7.102;2023-06-26T15:45:47;2.15;;;1.23;;
70757;SDS011;59316;52.964;7.102;2023-06-26T15:51:08;2.60;;;0.90;;
70757;SDS011;59316;52.964;7.102;2023-06-26T15:56:29;3.13;;;1.27;;
70757;SDS011;59316;52.964;7.102;2023-06-26T16:01:50;3.15;;;1.30;;
70757;SDS011;59316;52.964;7.102;2023-06-26T16:07:11;2.10;;;1.13;;
70757;SDS011;59316;52.964;7.102;2023-06-26T16:12:32;4.72;;;1.05;;
70757;SDS011;59316;52.964;7.102;2023-06-26T16:17:54;2.72;;;1.08;;
70757;SDS011;59316;52.964;7.102;2023-06-26T16:23:14;4.78;;;1.15;;
70757;SDS011;59316;52.964;7.102;2023-06-26T16:28:40;5.78;;;1.30;;
70757;SDS011;59316;52.964;7.102;2023-06-26T16:34:01;2.33;;;0.90;;
70757;SDS011;59316;52.964;7.102;2023-06-26T16:39:22;3.80;;;1.30;;
70757;SDS011;59316;52.964;7.102;2023-06-26T16:44:42;3.72;;;1.30;;
70757;SDS011;59316;52.964;7.102;2023-06-26T16:50:04;4.43;;;1.40;;
70757;SDS011;59316;52.964;7.102;2023-06-26T16:55:25;6.15;;;1.48;;
70757;SDS011;59316;52.964;7.102;2023-06-26T17:00:46;7.10;;;1.50;;
70757;SDS011;59316;52.964;7.102;2023-06-26T17:06:08;4.25;;;1.42;;
70757;SDS011;59316;52.964;7.102;2023-06-26T17:11:29;5.03;;;1.42;;
70757;SDS011;59316;52.964;7.102;2023-06-26T17:16:49;2.78;;;1.20;;
70757;SDS011;59316;52.964;7.102;2023-06-26T17:22:10;3.05;;;1.00;;
70757;SDS011;59316;52.964;7.102;2023-06-26T17:27:31;2.28;;;1.15;;
70757;SDS011;59316;52.964;7.102;2023-06-26T17:32:52;3.58;;;1.30;;
70757;SDS011;59316;52.964;7.102;2023-06-26T17:38:13;5.82;;;1.35;;
70757;SDS011;59316;52.964;7.102;2023-06-26T17:43:34;4.25;;;1.30;;
70757;SDS011;59316;52.964;7.102;2023-06-26T17:48:55;2.22;;;1.25;;
70757;SDS011;59316;52.964;7.102;2023-06-26T17:54:16;2.85;;;1.15;;
70757;SDS011;59316;52.964;7.102;2023-06-26T17:59:37;3.88;;;1.10;;
70757;SDS011;59316;52.964;7.102;2023-06-26T18:04:58;3.35;;;0.98;;
70757;SDS011;59316;52.964;7.102;2023-06-26T18:10:19;2.60;;;1.10;;
70757;SDS011;59316;52.964;7.102;2023-06-26T18:15:40;6.57;;;1.23;;
70757;SDS011;59316;52.964;7.102;2023-06-26T18:21:01;3.13;;;1.00;;
70757;SDS011;59316;52.964;7.102;2023-06-26T18:26:22;2.67;;;0.88;;
70757;SDS011;59316;52.964;7.102;2023-06-26T18:31:42;4.15;;;0.90;;
70757;SDS011;59316;52.964;7.102;2023-06-26T18:37:03;2.63;;;1.00;;
70757;SDS011;59316;52.964;7.102;2023-06-26T18:42:24;1.45;;;0.80;;
70757;SDS011;59316;52.964;7.102;2023-06-26T18:47:46;3.05;;;1.13;;
70757;SDS011;59316;52.964;7.102;2023-06-26T18:53:08;4.85;;;1.10;;
70757;SDS011;59316;52.964;7.102;2023-06-26T18:58:29;4.75;;;1.00;;
70757;SDS011;59316;52.964;7.102;2023-06-26T19:03:50;3.40;;;1.30;;
70757;SDS011;59316;52.964;7.102;2023-06-26T19:09:11;3.15;;;0.93;;
70757;SDS011;59316;52.964;7.102;2023-06-26T19:14:32;5.47;;;1.10;;
70757;SDS011;59316;52.964;7.102;2023-06-26T19:19:54;3.47;;;1.02;;
70757;SDS011;59316;52.964;7.102;2023-06-26T19:25:14;3.70;;;1.00;;
70757;SDS011;59316;52.964;7.102;2023-06-26T19:30:35;8.10;;;1.10;;
70757;SDS011;59316;52.964;7.102;2023-06-26T19:35:57;2.90;;;0.90;;
70757;SDS011;59316;52.964;7.102;2023-06-26T19:41:18;4.50;;;1.05;;
70757;SDS011;59316;52.964;7.102;2023-06-26T19:46:39;3.20;;;1.00;;
70757;SDS011;59316;52.964;7.102;2023-06-26T19:52:00;1.13;;;0.80;;
70757;SDS011;59316;52.964;7.102;2023-06-26T19:57:21;4.00;;;1.10;;
70757;SDS011;59316;52.964;7.102;2023-06-26T20:02:42;3.50;;;1.40;;
70757;SDS011;59316;52.964;7.102;2023-06-26T20:08:04;4.95;;;0.93;;
70757;SDS011;59316;52.964;7.102;2023-06-26T20:13:25;10.90;;;1.42;;
70757;SDS011;59316;52.964;7.102;2023-06-26T20:18:45;1.50;;;0.82;;
70757;SDS011;59316;52.964;7.102;2023-06-26T20:24:07;2.15;;;1.10;;
70757;SDS011;59316;52.964;7.102;2023-06-26T20:29:28;4.57;;;1.27;;
70757;SDS011;59316;52.964;7.102;2023-06-26T20:34:50;6.97;;;1.20;;
70757;SDS011;59316;52.964;7.102;2023-06-26T20:40:12;3.08;;;1.23;;
70757;SDS011;59316;52.964;7.102;2023-06-26T20:45:34;3.97;;;1.17;;
70757;SDS011;59316;52.964;7.102;2023-06-26T20:50:56;5.03;;;1.52;;
70757;SDS011;59316;52.964;7.102;2023-06-26T20:56:20;3.50;;;1.20;;
70757;SDS011;59316;52.964;7.102;2023-06-26T21:01:43;4.55;;;1.42;;
70757;SDS011;59316;52.964;7.102;2023-06-26T21:07:05;3.70;;;1.35;;
70757;SDS011;59316;52.964;7.102;2023-06-26T21:12:27;3.00;;;1.30;;
70757;SDS011;59316;52.964;7.102;2023-06-26T21:17:49;2.78;;;1.15;;
70757;SDS011;59316;52.964;7.102;2023-06-26T21:23:10;6.45;;;1.45;;
70757;SDS011;59316;52.964;7.102;2023-06-26T21:28:32;5.65;;;1.70;;
70757;SDS011;59316;52.964;7.102;2023-06-26T21:33:53;7.32;;;1.90;;
70757;SDS011;59316;52.964;7.102;2023-06-26T21:39:15;2.45;;;1.33;;
70757;SDS011;59316;52.964;7.102;2023-06-26T21:44:36;6.70;;;1.40;;
70757;SDS011;59316;52.964;7.102;2023-06-26T21:49:58;5.80;;;1.60;;
70757;SDS011;59316;52.964;7.102;2023-06-26T21:55:19;5.85;;;1.98;;
70757;SDS011;59316;52.964;7.102;2023-06-26T22:00:41;3.30;;;1.73;;
70757;SDS011;59316;52.964;7.102;2023-06-26T22:06:03;3.58;;;1.63;;
70757;SDS011;59316;52.964;7.102;2023-06-26T22:11:25;2.58;;;1.50;;
70757;SDS011;59316;52.964;7.102;2023-06-26T22:16:46;4.88;;;2.33;;
70757;SDS011;59316;52.964;7.102;2023-06-26T22:22:08;2.83;;;1.50;;
70757;SDS011;59316;52.964;7.102;2023-06-26T22:27:30;4.88;;;1.52;;
70757;SDS011;59316;52.964;7.102;2023-06-26T22:32:52;4.63;;;1.67;;
70757;SDS011;59316;52.964;7.102;2023-06-26T22:38:13;5.15;;;1.30;;
70757;SDS011;59316;52.964;7.102;2023-06-26T22:43:35;7.07;;;1.80;;
70757;SDS011;59316;52.964;7.102;2023-06-26T22:48:56;6.65;;;1.92;;
70757;SDS011;59316;52.964;7.102;2023-06-26T22:54:18;3.10;;;1.50;;
70757;SDS011;59316;52.964;7.102;2023-06-26T22:59:39;5.45;;;1.60;;
70757;SDS011;59316;52.964;7.102;2023-06-26T23:05:01;4.50;;;1.73;;
70757;SDS011;59316;52.964;7.102;2023-06-26T23:10:23;3.60;;;1.50;;
70757;SDS011;59316;52.964;7.102;2023-06-26T23:15:44;6.68;;;2.13;;
70757;SDS011;59316;52.964;7.102;2023-06-26T23:21:06;4.47;;;2.13;;
70757;SDS011;59316;52.964;7.102;2023-06-26T23:26:27;6.38;;;1.73;;
70757;SDS011;59316;52.964;7.102;2023-06-26T23:31:49;7.05;;;2.25;;
70757;SDS011;59316;52.964;7.102;2023-06-26T23:37:11;3.63;;;1.80;;
70757;SDS011;59316;52.964;7.102;2023-06-26T23:42:33;3.95;;;2.00;;
70757;SDS011;59316;52.964;7.102;2023-06-26T23:47:55;5.53;;;2.10;;
70757;SDS011;59316;52.964;7.102;2023-06-26T23:53:17;4.80;;;2.22;;
70757;SDS011;59316;52.964;7.102;2023-06-26T23:58:39;6.15;;;2.47;;
